sensor_id;sensor_type;location;lat;lon;timestamp;P1;durP1;ratioP1;P2;durP2;ratioP2
17091;SDS011;8661;45.700;4.880;2023-09-19T00:00:16;6.17;;;4.33;;
17091;SDS011;8661;45.700;4.880;2023-09-19T00:02:46;6.90;;;3.60;;
17091;SDS011;8661;45.700;4.880;2023-09-19T00:05:18;5.47;;;3.67;;
17091;SDS011;8661;45.700;4.880;2023-09-19T00:07:48;7.07;;;3.47;;
17091;SDS011;8661;45.700;4.880;2023-09-19T00:10:20;6.97;;;3.73;;
17091;SDS011;8661;45.700;4.880;2023-09-19T00:12:51;4.30;;;3.30;;
17091;SDS011;8661;45.700;4.880;2023-09-19T00:15:18;5.47;;;3.60;;
17091;SDS011;8661;45.700;4.880;2023-09-19T00:17:45;5.87;;;3.00;;
17091;SDS011;8661;45.700;4.880;2023-09-19T00:20:12;8.27;;;3.47;;
17091;SDS011;8661;45.700;4.880;2023-09-19T00:22:42;5.57;;;3.50;;
17091;SDS011;8661;45.700;4.880;2023-09-19T00:25:09;6.87;;;3.23;;
17091;SDS011;8661;45.700;4.880;2023-09-19T00:27:37;7.43;;;3.20;;
17091;SDS011;8661;45.700;4.880;2023-09-19T00:30:08;9.67;;;4.03;;
17091;SDS011;8661;45.700;4.880;2023-09-19T00:32:40;7.43;;;3.57;;
17091;SDS011;8661;45.700;4.880;2023-09-19T00:35:07;6.07;;;3.37;;
17091;SDS011;8661;45.700;4.880;2023-09-19T00:37:35;4.40;;;3.23;;
17091;SDS011;8661;45.700;4.880;2023-09-19T00:40:05;10.43;;;3.27;;
17091;SDS011;8661;45.700;4.880;2023-09-19T00:42:35;7.10;;;3.17;;
17091;SDS011;8661;45.700;4.880;2023-09-19T00:45:03;8.70;;;3.40;;
17091;SDS011;8661;45.700;4.880;2023-09-19T00:47:32;4.63;;;3.03;;
17091;SDS011;8661;45.700;4.880;2023-09-19T00:50:00;7.00;;;3.27;;
17091;SDS011;8661;45.700;4.880;2023-09-19T00:52:28;4.73;;;3.10;;
17091;SDS011;8661;45.700;4.880;2023-09-19T00:54:55;7.87;;;3.43;;
17091;SDS011;8661;45.700;4.880;2023-09-19T00:57:23;6.07;;;3.27;;
17091;SDS011;8661;45.700;4.880;2023-09-19T00:59:50;9.43;;;3.10;;
17091;SDS011;8661;45.700;4.880;2023-09-19T01:02:21;4.70;;;2.70;;
17091;SDS011;8661;45.700;4.880;2023-09-19T01:04:49;6.43;;;3.20;;
17091;SDS011;8661;45.700;4.880;2023-09-19T01:07:16;6.40;;;2.60;;
17091;SDS011;8661;45.700;4.880;2023-09-19T01:09:44;4.57;;;2.77;;
17091;SDS011;8661;45.700;4.880;2023-09-19T01:12:11;5.90;;;3.00;;
17091;SDS011;8661;45.700;4.880;2023-09-19T01:14:44;6.83;;;3.53;;
17091;SDS011;8661;45.700;4.880;2023-09-19T01:17:24;5.60;;;3.40;;
17091;SDS011;8661;45.700;4.880;2023-09-19T01:22:56;8.23;;;3.43;;
17091;SDS011;8661;45.700;4.880;2023-09-19T01:25:40;4.60;;;3.17;;
17091;SDS011;8661;45.700;4.880;2023-09-19T01:28:24;5.40;;;3.70;;
17091;SDS011;8661;45.700;4.880;2023-09-19T01:31:03;11.00;;;4.33;;
17091;SDS011;8661;45.700;4.880;2023-09-19T01:36:24;7.47;;;4.00;;
17091;SDS011;8661;45.700;4.880;2023-09-19T01:38:52;8.53;;;4.70;;
17091;SDS011;8661;45.700;4.880;2023-09-19T01:41:21;10.73;;;4.30;;
17091;SDS011;8661;45.700;4.880;2023-09-19T01:43:59;7.93;;;3.73;;
17091;SDS011;8661;45.700;4.880;2023-09-19T01:46:33;4.97;;;2.73;;
17091;SDS011;8661;45.700;4.880;2023-09-19T01:49:07;3.93;;;2.37;;
17091;SDS011;8661;45.700;4.880;2023-09-19T01:51:46;1.73;;;1.40;;
17091;SDS011;8661;45.700;4.880;2023-09-19T01:54:23;2.80;;;1.40;;
17091;SDS011;8661;45.700;4.880;2023-09-19T01:56:57;3.27;;;1.80;;
17091;SDS011;8661;45.700;4.880;2023-09-19T01:59:31;5.90;;;2.30;;
17091;SDS011;8661;45.700;4.880;2023-09-19T02:02:06;5.40;;;2.10;;
17091;SDS011;8661;45.700;4.880;2023-09-19T02:04:34;4.40;;;2.00;;
17091;SDS011;8661;45.700;4.880;2023-09-19T02:07:02;5.73;;;2.03;;
17091;SDS011;8661;45.700;4.880;2023-09-19T02:09:30;5.80;;;1.93;;
17091;SDS011;8661;45.700;4.880;2023-09-19T02:11:59;0.47;;;0.47;;
17091;SDS011;8661;45.700;4.880;2023-09-19T02:14:26;1.80;;;0.60;;
17091;SDS011;8661;45.700;4.880;2023-09-19T02:16:54;0.50;;;0.27;;
17091;SDS011;8661;45.700;4.880;2023-09-19T02:19:23;0.10;;;0.10;;
17091;SDS011;8661;45.700;4.880;2023-09-19T02:21:49;0.10;;;0.10;;
17091;SDS011;8661;45.700;4.880;2023-09-19T02:24:17;0.10;;;0.10;;
17091;SDS011;8661;45.700;4.880;2023-09-19T02:26:44;0.10;;;0.10;;
17091;SDS011;8661;45.700;4.880;2023-09-19T02:29:12;0.10;;;0.10;;
17091;SDS011;8661;45.700;4.880;2023-09-19T02:31:39;0.00;;;0.00;;
17091;SDS011;8661;45.700;4.880;2023-09-19T02:34:07;0.00;;;0.00;;
17091;SDS011;8661;45.700;4.880;2023-09-19T02:36:36;0.00;;;0.00;;
17091;SDS011;8661;45.700;4.880;2023-09-19T02:39:03;0.00;;;0.00;;
17091;SDS011;8661;45.700;4.880;2023-09-19T02:41:31;0.00;;;0.00;;
17091;SDS011;8661;45.700;4.880;2023-09-19T02:43:58;0.00;;;0.00;;
17091;SDS011;8661;45.700;4.880;2023-09-19T02:46:26;0.00;;;0.00;;
17091;SDS011;8661;45.700;4.880;2023-09-19T02:48:53;0.10;;;0.10;;
17091;SDS011;8661;45.700;4.880;2023-09-19T02:51:21;0.10;;;0.10;;
17091;SDS011;8661;45.700;4.880;2023-09-19T02:53:49;0.00;;;0.00;;
17091;SDS011;8661;45.700;4.880;2023-09-19T02:56:17;0.00;;;0.00;;
17091;SDS011;8661;45.700;4.880;2023-09-19T02:58:44;0.00;;;0.00;;
17091;SDS011;8661;45.700;4.880;2023-09-19T03:01:13;0.00;;;0.00;;
17091;SDS011;8661;45.700;4.880;2023-09-19T03:03:40;0.00;;;0.00;;
17091;SDS011;8661;45.700;4.880;2023-09-19T03:06:07;0.00;;;0.00;;
17091;SDS011;8661;45.700;4.880;2023-09-19T03:08:34;0.00;;;0.00;;
17091;SDS011;8661;45.700;4.880;2023-09-19T03:11:04;0.00;;;0.00;;
17091;SDS011;8661;45.700;4.880;2023-09-19T03:13:33;0.00;;;0.00;;
17091;SDS011;8661;45.700;4.880;2023-09-19T03:16:01;0.00;;;0.00;;
17091;SDS011;8661;45.700;4.880;2023-09-19T03:18:30;0.00;;;0.00;;
17091;SDS011;8661;45.700;4.880;2023-09-19T03:20:58;0.10;;;0.10;;
17091;SDS011;8661;45.700;4.880;2023-09-19T03:23:26;0.03;;;0.03;;
17091;SDS011;8661;45.700;4.880;2023-09-19T03:25:53;0.00;;;0.00;;
17091;SDS011;8661;45.700;4.880;2023-09-19T03:28:22;0.00;;;0.00;;
17091;SDS011;8661;45.700;4.880;2023-09-19T03:30:57;0.00;;;0.00;;
17091;SDS011;8661;45.700;4.880;2023-09-19T03:33:25;0.00;;;0.00;;
17091;SDS011;8661;45.700;4.880;2023-09-19T03:35:52;0.00;;;0.00;;
17091;SDS011;8661;45.700;4.880;2023-09-19T03:38:20;0.00;;;0.00;;
17091;SDS011;8661;45.700;4.880;2023-09-19T03:40:47;0.00;;;0.00;;
17091;SDS011;8661;45.700;4.880;2023-09-19T03:43:14;0.00;;;0.00;;
17091;SDS011;8661;45.700;4.880;2023-09-19T03:45:42;0.00;;;0.00;;
17091;SDS011;8661;45.700;4.880;2023-09-19T03:48:10;0.00;;;0.00;;
17091;SDS011;8661;45.700;4.880;2023-09-19T03:50:37;0.00;;;0.00;;
17091;SDS011;8661;45.700;4.880;2023-09-19T03:53:03;0.03;;;0.03;;
17091;SDS011;8661;45.700;4.880;2023-09-19T03:55:32;0.00;;;0.00;;
17091;SDS011;8661;45.700;4.880;2023-09-19T03:58:00;0.00;;;0.00;;
17091;SDS011;8661;45.700;4.880;2023-09-19T04:00:27;0.00;;;0.00;;
17091;SDS011;8661;45.700;4.880;2023-09-19T04:02:56;0.00;;;0.00;;
17091;SDS011;8661;45.700;4.880;2023-09-19T04:05:23;0.00;;;0.00;;
17091;SDS011;8661;45.700;4.880;2023-09-19T04:07:50;0.00;;;0.00;;
17091;SDS011;8661;45.700;4.880;2023-09-19T04:10:17;0.00;;;0.00;;
17091;SDS011;8661;45.700;4.880;2023-09-19T04:12:51;0.00;;;0.00;;
17091;SDS011;8661;45.700;4.880;2023-09-19T04:15:19;0.00;;;0.00;;
17091;SDS011;8661;45.700;4.880;2023-09-19T04:17:47;0.00;;;0.00;;
17091;SDS011;8661;45.700;4.880;2023-09-19T04:20:15;0.00;;;0.00;;
17091;SDS011;8661;45.700;4.880;2023-09-19T04:22:43;0.00;;;0.00;;
17091;SDS011;8661;45.700;4.880;2023-09-19T04:25:10;0.00;;;0.00;;
17091;SDS011;8661;45.700;4.880;2023-09-19T04:27:37;0.00;;;0.00;;
17091;SDS011;8661;45.700;4.880;2023-09-19T04:30:05;0.00;;;0.00;;
17091;SDS011;8661;45.700;4.880;2023-09-19T04:32:35;0.00;;;0.00;;
17091;SDS011;8661;45.700;4.880;2023-09-19T04:35:05;0.00;;;0.00;;
17091;SDS011;8661;45.700;4.880;2023-09-19T04:37:35;0.00;;;0.00;;
17091;SDS011;8661;45.700;4.880;2023-09-19T04:40:06;0.00;;;0.00;;
17091;SDS011;8661;45.700;4.880;2023-09-19T04:42:38;0.00;;;0.00;;
17091;SDS011;8661;45.700;4.880;2023-09-19T04:45:06;0.00;;;0.00;;
17091;SDS011;8661;45.700;4.880;2023-09-19T04:47:34;0.00;;;0.00;;
17091;SDS011;8661;45.700;4.880;2023-09-19T04:50:03;0.00;;;0.00;;
17091;SDS011;8661;45.700;4.880;2023-09-19T04:52:40;0.00;;;0.00;;
17091;SDS011;8661;45.700;4.880;2023-09-19T04:55:10;0.00;;;0.00;;
17091;SDS011;8661;45.700;4.880;2023-09-19T04:57:41;0.00;;;0.00;;
17091;SDS011;8661;45.700;4.880;2023-09-19T05:00:12;0.00;;;0.00;;
17091;SDS011;8661;45.700;4.880;2023-09-19T05:02:40;0.00;;;0.00;;
17091;SDS011;8661;45.700;4.880;2023-09-19T05:05:07;0.00;;;0.00;;
17091;SDS011;8661;45.700;4.880;2023-09-19T05:07:35;0.00;;;0.00;;
17091;SDS011;8661;45.700;4.880;2023-09-19T05:10:03;0.00;;;0.00;;
17091;SDS011;8661;45.700;4.880;2023-09-19T05:12:32;0.00;;;0.00;;
17091;SDS011;8661;45.700;4.880;2023-09-19T05:15:00;0.00;;;0.00;;
17091;SDS011;8661;45.700;4.880;2023-09-19T05:17:27;0.00;;;0.00;;
17091;SDS011;8661;45.700;4.880;2023-09-19T05:19:55;0.00;;;0.00;;
17091;SDS011;8661;45.700;4.880;2023-09-19T05:22:21;0.00;;;0.00;;
17091;SDS011;8661;45.700;4.880;2023-09-19T05:24:49;0.00;;;0.00;;
17091;SDS011;8661;45.700;4.880;2023-09-19T05:27:19;0.00;;;0.00;;
17091;SDS011;8661;45.700;4.880;2023-09-19T05:29:46;0.00;;;0.00;;
17091;SDS011;8661;45.700;4.880;2023-09-19T05:32:15;0.00;;;0.00;;
17091;SDS011;8661;45.700;4.880;2023-09-19T05:34:43;0.10;;;0.10;;
17091;SDS011;8661;45.700;4.880;2023-09-19T05:37:09;0.00;;;0.00;;
17091;SDS011;8661;45.700;4.880;2023-09-19T05:39:36;0.00;;;0.00;;
17091;SDS011;8661;45.700;4.880;2023-09-19T05:42:03;0.00;;;0.00;;
17091;SDS011;8661;45.700;4.880;2023-09-19T05:44:32;0.00;;;0.00;;
17091;SDS011;8661;45.700;4.880;2023-09-19T05:46:59;0.00;;;0.00;;
17091;SDS011;8661;45.700;4.880;2023-09-19T05:49:26;0.00;;;0.00;;
17091;SDS011;8661;45.700;4.880;2023-09-19T05:51:53;0.00;;;0.00;;
17091;SDS011;8661;45.700;4.880;2023-09-19T05:54:22;0.00;;;0.00;;
17091;SDS011;8661;45.700;4.880;2023-09-19T05:56:49;0.00;;;0.00;;
17091;SDS011;8661;45.700;4.880;2023-09-19T05:59:18;0.00;;;0.00;;
17091;SDS011;8661;45.700;4.880;2023-09-19T06:01:46;0.00;;;0.00;;
17091;SDS011;8661;45.700;4.880;2023-09-19T06:04:13;0.00;;;0.00;;
17091;SDS011;8661;45.700;4.880;2023-09-19T06:06:40;0.00;;;0.00;;
17091;SDS011;8661;45.700;4.880;2023-09-19T06:09:07;0.00;;;0.00;;
17091;SDS011;8661;45.700;4.880;2023-09-19T06:11:34;0.00;;;0.00;;
17091;SDS011;8661;45.700;4.880;2023-09-19T06:14:02;0.00;;;0.00;;
17091;SDS011;8661;45.700;4.880;2023-09-19T06:16:30;0.00;;;0.00;;
17091;SDS011;8661;45.700;4.880;2023-09-19T06:18:59;0.00;;;0.00;;
17091;SDS011;8661;45.700;4.880;2023-09-19T06:21:26;0.00;;;0.00;;
17091;SDS011;8661;45.700;4.880;2023-09-19T06:23:53;0.00;;;0.00;;
17091;SDS011;8661;45.700;4.880;2023-09-19T06:26:20;0.00;;;0.00;;
17091;SDS011;8661;45.700;4.880;2023-09-19T06:28:51;0.00;;;0.00;;
17091;SDS011;8661;45.700;4.880;2023-09-19T06:31:18;0.00;;;0.00;;
17091;SDS011;8661;45.700;4.880;2023-09-19T06:33:47;0.00;;;0.00;;
17091;SDS011;8661;45.700;4.880;2023-09-19T06:36:16;0.00;;;0.00;;
17091;SDS011;8661;45.700;4.880;2023-09-19T06:38:44;0.00;;;0.00;;
17091;SDS011;8661;45.700;4.880;2023-09-19T06:41:12;0.00;;;0.00;;
17091;SDS011;8661;45.700;4.880;2023-09-19T06:43:41;0.00;;;0.00;;
17091;SDS011;8661;45.700;4.880;2023-09-19T06:46:07;0.00;;;0.00;;
17091;SDS011;8661;45.700;4.880;2023-09-19T06:48:34;0.00;;;0.00;;
17091;SDS011;8661;45.700;4.880;2023-09-19T06:51:01;0.00;;;0.00;;
17091;SDS011;8661;45.700;4.880;2023-09-19T06:53:31;0.10;;;0.10;;
17091;SDS011;8661;45.700;4.880;2023-09-19T06:55:59;0.10;;;0.10;;
17091;SDS011;8661;45.700;4.880;2023-09-19T06:58:27;0.00;;;0.00;;
17091;SDS011;8661;45.700;4.880;2023-09-19T07:00:54;0.00;;;0.00;;
17091;SDS011;8661;45.700;4.880;2023-09-19T07:03:22;0.00;;;0.00;;
17091;SDS011;8661;45.700;4.880;2023-09-19T07:05:51;0.00;;;0.00;;
17091;SDS011;8661;45.700;4.880;2023-09-19T07:08:21;3.13;;;1.53;;
17091;SDS011;8661;45.700;4.880;2023-09-19T07:10:49;4.20;;;1.90;;
17091;SDS011;8661;45.700;4.880;2023-09-19T07:13:17;5.80;;;2.30;;
17091;SDS011;8661;45.700;4.880;2023-09-19T07:15:44;4.47;;;1.97;;
17091;SDS011;8661;45.700;4.880;2023-09-19T07:18:12;5.17;;;1.63;;
17091;SDS011;8661;45.700;4.880;2023-09-19T07:20:43;12.60;;;1.90;;
17091;SDS011;8661;45.700;4.880;2023-09-19T07:23:13;2.77;;;1.40;;
17091;SDS011;8661;45.700;4.880;2023-09-19T07:25:41;2.03;;;1.30;;
17091;SDS011;8661;45.700;4.880;2023-09-19T07:28:09;6.10;;;1.67;;
17091;SDS011;8661;45.700;4.880;2023-09-19T07:30:36;4.70;;;1.60;;
17091;SDS011;8661;45.700;4.880;2023-09-19T07:33:04;4.00;;;1.60;;
17091;SDS011;8661;45.700;4.880;2023-09-19T07:35:31;7.63;;;1.83;;
17091;SDS011;8661;45.700;4.880;2023-09-19T07:37:58;2.83;;;1.40;;
17091;SDS011;8661;45.700;4.880;2023-09-19T07:40:26;2.40;;;1.20;;
17091;SDS011;8661;45.700;4.880;2023-09-19T07:42:53;5.73;;;1.70;;
17091;SDS011;8661;45.700;4.880;2023-09-19T07:45:22;4.23;;;1.40;;
17091;SDS011;8661;45.700;4.880;2023-09-19T07:47:50;2.40;;;1.43;;
17091;SDS011;8661;45.700;4.880;2023-09-19T07:50:17;2.50;;;1.37;;
17091;SDS011;8661;45.700;4.880;2023-09-19T07:52:45;6.00;;;1.80;;
17091;SDS011;8661;45.700;4.880;2023-09-19T07:55:12;2.77;;;1.50;;
17091;SDS011;8661;45.700;4.880;2023-09-19T07:57:42;2.07;;;1.17;;
17091;SDS011;8661;45.700;4.880;2023-09-19T08:00:09;3.60;;;1.63;;
17091;SDS011;8661;45.700;4.880;2023-09-19T08:02:38;2.57;;;1.40;;
17091;SDS011;8661;45.700;4.880;2023-09-19T08:05:06;4.47;;;1.70;;
17091;SDS011;8661;45.700;4.880;2023-09-19T08:07:36;3.90;;;1.57;;
17091;SDS011;8661;45.700;4.880;2023-09-19T08:10:03;2.00;;;1.50;;
17091;SDS011;8661;45.700;4.880;2023-09-19T08:12:32;2.80;;;1.40;;
17091;SDS011;8661;45.700;4.880;2023-09-19T08:15:00;4.67;;;1.80;;
17091;SDS011;8661;45.700;4.880;2023-09-19T08:17:27;6.13;;;1.93;;
17091;SDS011;8661;45.700;4.880;2023-09-19T08:19:56;4.03;;;1.40;;
17091;SDS011;8661;45.700;4.880;2023-09-19T08:22:22;2.97;;;1.60;;
17091;SDS011;8661;45.700;4.880;2023-09-19T08:24:49;4.20;;;1.43;;
17091;SDS011;8661;45.700;4.880;2023-09-19T08:27:16;4.13;;;1.60;;
17091;SDS011;8661;45.700;4.880;2023-09-19T08:29:44;3.33;;;1.67;;
17091;SDS011;8661;45.700;4.880;2023-09-19T08:32:12;1.93;;;1.37;;
17091;SDS011;8661;45.700;4.880;2023-09-19T08:34:39;3.73;;;1.40;;
17091;SDS011;8661;45.700;4.880;2023-09-19T08:37:08;3.43;;;1.67;;
17091;SDS011;8661;45.700;4.880;2023-09-19T08:39:35;3.67;;;1.57;;
17091;SDS011;8661;45.700;4.880;2023-09-19T08:42:03;3.37;;;1.50;;
17091;SDS011;8661;45.700;4.880;2023-09-19T08:44:30;8.70;;;1.80;;
17091;SDS011;8661;45.700;4.880;2023-09-19T08:47:05;4.77;;;1.60;;
17091;SDS011;8661;45.700;4.880;2023-09-19T08:49:38;3.33;;;1.30;;
17091;SDS011;8661;45.700;4.880;2023-09-19T08:52:19;4.53;;;1.67;;
17091;SDS011;8661;45.700;4.880;2023-09-19T08:54:49;4.10;;;1.67;;
17091;SDS011;8661;45.700;4.880;2023-09-19T08:57:19;5.30;;;1.50;;
17091;SDS011;8661;45.700;4.880;2023-09-19T08:59:47;2.87;;;1.23;;
17091;SDS011;8661;45.700;4.880;2023-09-19T09:02:15;4.83;;;2.10;;
17091;SDS011;8661;45.700;4.880;2023-09-19T09:04:44;5.20;;;2.27;;
17091;SDS011;8661;45.700;4.880;2023-09-19T09:07:12;5.73;;;2.23;;
17091;SDS011;8661;45.700;4.880;2023-09-19T09:09:42;4.83;;;2.30;;
17091;SDS011;8661;45.700;4.880;2023-09-19T09:12:10;7.17;;;2.57;;
17091;SDS011;8661;45.700;4.880;2023-09-19T09:14:38;4.83;;;2.43;;
17091;SDS011;8661;45.700;4.880;2023-09-19T09:17:06;3.47;;;2.77;;
17091;SDS011;8661;45.700;4.880;2023-09-19T09:19:34;5.20;;;2.30;;
17091;SDS011;8661;45.700;4.880;2023-09-19T09:22:07;4.23;;;2.23;;
17091;SDS011;8661;45.700;4.880;2023-09-19T09:24:35;4.43;;;2.40;;
17091;SDS011;8661;45.700;4.880;2023-09-19T09:27:04;3.63;;;2.30;;
17091;SDS011;8661;45.700;4.880;2023-09-19T09:29:40;9.27;;;3.50;;
17091;SDS011;8661;45.700;4.880;2023-09-19T09:32:18;5.20;;;3.00;;
17091;SDS011;8661;45.700;4.880;2023-09-19T09:34:46;5.03;;;2.00;;
17091;SDS011;8661;45.700;4.880;2023-09-19T09:37:14;4.83;;;2.27;;
17091;SDS011;8661;45.700;4.880;2023-09-19T09:39:48;2.47;;;1.80;;
17091;SDS011;8661;45.700;4.880;2023-09-19T09:42:30;5.27;;;2.27;;
17091;SDS011;8661;45.700;4.880;2023-09-19T09:45:12;4.90;;;1.80;;
17091;SDS011;8661;45.700;4.880;2023-09-19T09:47:44;6.73;;;2.07;;
17091;SDS011;8661;45.700;4.880;2023-09-19T09:50:28;2.20;;;1.43;;
17091;SDS011;8661;45.700;4.880;2023-09-19T09:53:04;2.27;;;1.53;;
17091;SDS011;8661;45.700;4.880;2023-09-19T09:55:58;2.10;;;1.27;;
17091;SDS011;8661;45.700;4.880;2023-09-19T09:58:33;2.67;;;1.40;;
17091;SDS011;8661;45.700;4.880;2023-09-19T10:01:00;2.57;;;1.40;;
17091;SDS011;8661;45.700;4.880;2023-09-19T10:03:34;3.50;;;1.20;;
17091;SDS011;8661;45.700;4.880;2023-09-19T10:06:07;2.27;;;1.43;;
17091;SDS011;8661;45.700;4.880;2023-09-19T10:09:03;1.83;;;1.20;;
17091;SDS011;8661;45.700;4.880;2023-09-19T10:11:40;5.20;;;1.10;;
17091;SDS011;8661;45.700;4.880;2023-09-19T10:14:11;3.67;;;1.13;;
17091;SDS011;8661;45.700;4.880;2023-09-19T10:16:45;4.13;;;1.40;;
17091;SDS011;8661;45.700;4.880;2023-09-19T10:19:15;3.10;;;1.60;;
17091;SDS011;8661;45.700;4.880;2023-09-19T10:21:44;2.60;;;1.47;;
17091;SDS011;8661;45.700;4.880;2023-09-19T10:24:12;2.07;;;1.53;;
17091;SDS011;8661;45.700;4.880;2023-09-19T10:26:41;5.37;;;1.50;;
17091;SDS011;8661;45.700;4.880;2023-09-19T10:29:11;6.90;;;1.47;;
17091;SDS011;8661;45.700;4.880;2023-09-19T10:31:41;3.50;;;1.33;;
17091;SDS011;8661;45.700;4.880;2023-09-19T10:34:12;2.77;;;1.40;;
17091;SDS011;8661;45.700;4.880;2023-09-19T10:36:43;4.50;;;1.50;;
17091;SDS011;8661;45.700;4.880;2023-09-19T10:39:13;4.23;;;1.20;;
17091;SDS011;8661;45.700;4.880;2023-09-19T10:41:45;3.67;;;1.43;;
17091;SDS011;8661;45.700;4.880;2023-09-19T10:44:23;2.33;;;1.03;;
17091;SDS011;8661;45.700;4.880;2023-09-19T10:46:51;2.20;;;1.00;;
17091;SDS011;8661;45.700;4.880;2023-09-19T10:49:19;2.10;;;1.00;;
17091;SDS011;8661;45.700;4.880;2023-09-19T10:51:46;1.97;;;1.03;;
17091;SDS011;8661;45.700;4.880;2023-09-19T10:54:16;4.40;;;1.47;;
17091;SDS011;8661;45.700;4.880;2023-09-19T10:56:49;3.63;;;1.20;;
17091;SDS011;8661;45.700;4.880;2023-09-19T10:59:17;2.20;;;1.13;;
17091;SDS011;8661;45.700;4.880;2023-09-19T11:01:45;2.73;;;1.37;;
17091;SDS011;8661;45.700;4.880;2023-09-19T11:04:20;3.90;;;1.20;;
17091;SDS011;8661;45.700;4.880;2023-09-19T11:07:04;2.30;;;1.20;;
17091;SDS011;8661;45.700;4.880;2023-09-19T11:24:29;1.40;;;0.95;;
17091;SDS011;8661;45.700;4.880;2023-09-19T11:27:14;1.15;;;0.70;;
17091;SDS011;8661;45.700;4.880;2023-09-19T11:29:43;1.42;;;0.80;;
17091;SDS011;8661;45.700;4.880;2023-09-19T11:32:11;2.55;;;1.15;;
17091;SDS011;8661;45.700;4.880;2023-09-19T11:34:43;3.13;;;0.90;;
17091;SDS011;8661;45.700;4.880;2023-09-19T11:40:25;2.22;;;1.00;;
17091;SDS011;8661;45.700;4.880;2023-09-19T11:42:53;2.70;;;0.95;;
17091;SDS011;8661;45.700;4.880;2023-09-19T11:48:26;2.78;;;1.25;;
17091;SDS011;8661;45.700;4.880;2023-09-19T11:50:55;1.17;;;0.77;;
17091;SDS011;8661;45.700;4.880;2023-09-19T11:53:24;3.90;;;1.33;;
17091;SDS011;8661;45.700;4.880;2023-09-19T11:56:01;1.95;;;1.00;;
17091;SDS011;8661;45.700;4.880;2023-09-19T11:58:28;1.77;;;0.93;;
17091;SDS011;8661;45.700;4.880;2023-09-19T12:00:58;2.28;;;1.15;;
17091;SDS011;8661;45.700;4.880;2023-09-19T12:03:33;4.88;;;1.17;;
17091;SDS011;8661;45.700;4.880;2023-09-19T12:06:11;2.08;;;1.00;;
17091;SDS011;8661;45.700;4.880;2023-09-19T12:08:40;1.92;;;1.10;;
17091;SDS011;8661;45.700;4.880;2023-09-19T12:11:11;2.03;;;0.80;;
17091;SDS011;8661;45.700;4.880;2023-09-19T12:13:43;1.58;;;1.00;;
17091;SDS011;8661;45.700;4.880;2023-09-19T12:16:14;2.20;;;1.02;;
17091;SDS011;8661;45.700;4.880;2023-09-19T12:18:42;2.50;;;1.25;;
17091;SDS011;8661;45.700;4.880;2023-09-19T12:21:28;2.13;;;1.20;;
17091;SDS011;8661;45.700;4.880;2023-09-19T12:24:04;1.50;;;1.00;;
17091;SDS011;8661;45.700;4.880;2023-09-19T12:26:40;2.60;;;0.85;;
17091;SDS011;8661;45.700;4.880;2023-09-19T12:29:15;1.20;;;0.90;;
17091;SDS011;8661;45.700;4.880;2023-09-19T12:31:52;2.25;;;1.02;;
17091;SDS011;8661;45.700;4.880;2023-09-19T12:34:23;2.47;;;1.05;;
17091;SDS011;8661;45.700;4.880;2023-09-19T12:39:41;5.15;;;1.60;;
17091;SDS011;8661;45.700;4.880;2023-09-19T12:42:13;2.50;;;1.00;;
17091;SDS011;8661;45.700;4.880;2023-09-19T12:44:42;2.50;;;1.35;;
17091;SDS011;8661;45.700;4.880;2023-09-19T12:47:10;2.20;;;1.13;;
17091;SDS011;8661;45.700;4.880;2023-09-19T12:52:40;1.95;;;1.20;;
17091;SDS011;8661;45.700;4.880;2023-09-19T12:55:08;2.38;;;1.15;;
17091;SDS011;8661;45.700;4.880;2023-09-19T12:57:54;2.67;;;1.17;;
17091;SDS011;8661;45.700;4.880;2023-09-19T13:00:35;3.45;;;1.15;;
17091;SDS011;8661;45.700;4.880;2023-09-19T13:03:11;1.52;;;1.00;;
17091;SDS011;8661;45.700;4.880;2023-09-19T13:05:53;3.13;;;1.05;;
17091;SDS011;8661;45.700;4.880;2023-09-19T13:08:27;1.33;;;0.90;;
17091;SDS011;8661;45.700;4.880;2023-09-19T13:11:00;3.38;;;1.17;;
17091;SDS011;8661;45.700;4.880;2023-09-19T13:13:35;1.58;;;1.05;;
17091;SDS011;8661;45.700;4.880;2023-09-19T13:16:03;2.58;;;0.90;;
17091;SDS011;8661;45.700;4.880;2023-09-19T13:18:33;1.83;;;1.05;;
17091;SDS011;8661;45.700;4.880;2023-09-19T13:21:10;3.05;;;1.13;;
17091;SDS011;8661;45.700;4.880;2023-09-19T13:23:41;2.72;;;1.20;;
17091;SDS011;8661;45.700;4.880;2023-09-19T13:26:09;1.60;;;0.98;;
17091;SDS011;8661;45.700;4.880;2023-09-19T13:28:37;1.95;;;1.20;;
17091;SDS011;8661;45.700;4.880;2023-09-19T13:31:04;1.73;;;1.25;;
17091;SDS011;8661;45.700;4.880;2023-09-19T13:33:33;1.98;;;1.10;;
17091;SDS011;8661;45.700;4.880;2023-09-19T13:36:00;2.13;;;1.05;;
17091;SDS011;8661;45.700;4.880;2023-09-19T13:38:28;1.73;;;1.02;;
17091;SDS011;8661;45.700;4.880;2023-09-19T13:40:56;2.10;;;1.05;;
17091;SDS011;8661;45.700;4.880;2023-09-19T13:43:24;2.30;;;1.25;;
17091;SDS011;8661;45.700;4.880;2023-09-19T13:45:51;2.80;;;0.90;;
17091;SDS011;8661;45.700;4.880;2023-09-19T13:48:18;4.20;;;1.00;;
17091;SDS011;8661;45.700;4.880;2023-09-19T13:50:47;1.80;;;1.00;;
17091;SDS011;8661;45.700;4.880;2023-09-19T13:53:14;2.90;;;1.40;;
17091;SDS011;8661;45.700;4.880;2023-09-19T13:55:41;3.83;;;1.20;;
17091;SDS011;8661;45.700;4.880;2023-09-19T13:58:10;2.72;;;1.00;;
17091;SDS011;8661;45.700;4.880;2023-09-19T14:00:37;1.60;;;0.93;;
17091;SDS011;8661;45.700;4.880;2023-09-19T14:03:04;1.73;;;1.00;;
17091;SDS011;8661;45.700;4.880;2023-09-19T14:05:31;4.72;;;1.45;;
17091;SDS011;8661;45.700;4.880;2023-09-19T14:07:58;1.05;;;0.80;;
17091;SDS011;8661;45.700;4.880;2023-09-19T14:10:26;4.15;;;1.15;;
17091;SDS011;8661;45.700;4.880;2023-09-19T14:12:55;2.85;;;0.90;;
17091;SDS011;8661;45.700;4.880;2023-09-19T14:15:24;2.83;;;0.93;;
17091;SDS011;8661;45.700;4.880;2023-09-19T14:17:54;2.05;;;1.08;;
17091;SDS011;8661;45.700;4.880;2023-09-19T14:20:22;3.20;;;1.20;;
17091;SDS011;8661;45.700;4.880;2023-09-19T14:22:49;2.72;;;1.10;;
17091;SDS011;8661;45.700;4.880;2023-09-19T14:25:16;2.28;;;1.20;;
17091;SDS011;8661;45.700;4.880;2023-09-19T14:27:43;1.50;;;0.90;;
17091;SDS011;8661;45.700;4.880;2023-09-19T14:30:10;2.05;;;1.13;;
17091;SDS011;8661;45.700;4.880;2023-09-19T14:32:39;2.97;;;1.17;;
17091;SDS011;8661;45.700;4.880;2023-09-19T14:35:06;4.57;;;1.10;;
17091;SDS011;8661;45.700;4.880;2023-09-19T14:37:34;2.75;;;1.02;;
17091;SDS011;8661;45.700;4.880;2023-09-19T14:40:03;1.25;;;0.80;;
17091;SDS011;8661;45.700;4.880;2023-09-19T14:42:34;2.38;;;1.20;;
17091;SDS011;8661;45.700;4.880;2023-09-19T14:45:03;1.50;;;1.10;;
17091;SDS011;8661;45.700;4.880;2023-09-19T14:47:31;2.05;;;1.20;;
17091;SDS011;8661;45.700;4.880;2023-09-19T14:50:01;2.65;;;1.30;;
17091;SDS011;8661;45.700;4.880;2023-09-19T14:52:31;2.90;;;0.90;;
17091;SDS011;8661;45.700;4.880;2023-09-19T14:54:58;3.15;;;0.93;;
17091;SDS011;8661;45.700;4.880;2023-09-19T14:57:25;3.17;;;1.30;;
17091;SDS011;8661;45.700;4.880;2023-09-19T14:59:52;4.63;;;1.20;;
17091;SDS011;8661;45.700;4.880;2023-09-19T15:02:19;2.30;;;1.38;;
17091;SDS011;8661;45.700;4.880;2023-09-19T15:04:46;2.33;;;1.30;;
17091;SDS011;8661;45.700;4.880;2023-09-19T15:07:14;3.47;;;1.42;;
17091;SDS011;8661;45.700;4.880;2023-09-19T15:09:44;3.63;;;1.70;;
17091;SDS011;8661;45.700;4.880;2023-09-19T15:12:12;1.75;;;1.10;;
17091;SDS011;8661;45.700;4.880;2023-09-19T15:14:40;6.15;;;1.85;;
17091;SDS011;8661;45.700;4.880;2023-09-19T15:17:07;2.15;;;1.50;;
17091;SDS011;8661;45.700;4.880;2023-09-19T15:19:34;1.80;;;1.20;;
17091;SDS011;8661;45.700;4.880;2023-09-19T15:22:03;3.17;;;1.13;;
17091;SDS011;8661;45.700;4.880;2023-09-19T15:24:32;5.03;;;1.50;;
17091;SDS011;8661;45.700;4.880;2023-09-19T15:26:59;1.33;;;1.00;;
17091;SDS011;8661;45.700;4.880;2023-09-19T15:29:26;1.85;;;1.13;;
17091;SDS011;8661;45.700;4.880;2023-09-19T15:31:54;1.73;;;1.33;;
17091;SDS011;8661;45.700;4.880;2023-09-19T15:34:23;1.90;;;1.02;;
17091;SDS011;8661;45.700;4.880;2023-09-19T15:36:50;2.95;;;0.95;;
17091;SDS011;8661;45.700;4.880;2023-09-19T15:39:17;2.47;;;1.15;;
17091;SDS011;8661;45.700;4.880;2023-09-19T15:41:48;2.88;;;1.20;;
17091;SDS011;8661;45.700;4.880;2023-09-19T15:44:16;2.58;;;1.00;;
17091;SDS011;8661;45.700;4.880;2023-09-19T15:46:45;4.75;;;1.27;;